Time,TemperatureF,DewpointF,PressureIn,WindDirection,WindDirectionDegrees,WindSpeedMPH,WindSpeedGustMPH,Humidity,HourlyPrecipIn,Conditions,Clouds,dailyrainin,SoftwareType,DateUTC
2013-02-24 00:00:00,29.7,29.7,29.80,NNW,335,9.8,12.1,100,0.00,,---,0.00,VWS V14.01,2013-02-24 05:00:00,
2013-02-24 00:05:00,29.7,29.7,29.80,North,9,8.9,12.1,100,0.00,,---,0.00,VWS V14.01,2013-02-24 05:05:00,
2013-02-24 00:10:00,29.7,29.7,29.80,North,9,6.3,11.2,100,0.00,,---,0.00,VWS V14.01,2013-02-24 05:10:00,
2013-02-24 00:20:00,29.7,29.7,29.80,North,8,5.4,8.5,100,0.00,,---,0.00,VWS V14.01,2013-02-24 05:20:00,
2013-02-24 00:25:00,29.7,29.7,29.80,North,7,3.1,9.4,100,0.00,,---,0.00,VWS V14.01,2013-02-24 05:25:00,
2013-02-24 00:35:00,29.7,29.7,29.80,North,360,6.3,10.3,100,0.00,,---,0.00,VWS V14.01,2013-02-24 05:35:00,
2013-02-24 00:45:00,28.4,28.4,29.80,NE,35,3.1,7.2,100,0.00,,---,0.00,VWS V14.01,2013-02-24 05:45:00,
2013-02-24 00:50:00,28.4,28.4,29.80,NNE,21,4.9,4.9,100,0.00,,---,0.00,VWS V14.01,2013-02-24 05:50:00,
2013-02-24 01:00:00,28.4,28.4,29.80,NE,45,5.8,8.1,100,0.00,,---,0.00,VWS V14.01,2013-02-24 06:00:00,
2013-02-24 01:10:00,28.4,28.4,29.80,NNE,26,2.7,5.4,100,0.00,,---,0.00,VWS V14.01,2013-02-24 06:10:00,
2013-02-24 01:15:00,28.4,28.4,29.80,NNE,32,3.1,5.8,100,0.00,,---,0.00,VWS V14.01,2013-02-24 06:15:00,
2013-02-24 01:20:00,28.4,28.4,29.80,NNE,25,2.7,4.5,100,0.00,,---,0.00,VWS V14.01,2013-02-24 06:20:00,
2013-02-24 01:25:00,28.4,28.4,29.80,NE,40,0.0,4.0,100,0.00,,---,0.00,VWS V14.01,2013-02-24 06:25:00,
2013-02-24 01:35:00,28.4,28.4,29.80,North,5,3.1,4.5,100,0.00,,---,0.00,VWS V14.01,2013-02-24 06:35:00,
2013-02-24 01:45:00,28.4,28.4,29.80,North,359,1.3,4.9,100,0.00,,---,0.00,VWS V14.01,2013-02-24 06:45:00,
2013-02-24 01:50:00,28.4,28.4,29.80,North,359,2.2,4.5,100,0.00,,---,0.00,VWS V14.01,2013-02-24 06:50:00,
2013-02-24 02:00:00,28.4,28.4,29.80,North,359,0.0,3.1,100,0.00,,---,0.00,VWS V14.01,2013-02-24 07:00:00,
2013-02-24 02:10:00,28.4,28.4,29.80,North,359,6.3,8.1,100,0.00,,---,0.00,VWS V14.01,2013-02-24 07:10:00,
2013-02-24 02:20:00,28.4,28.4,29.80,NNE,29,2.7,4.5,100,0.00,,---,0.00,VWS V14.01,2013-02-24 07:20:00,
2013-02-24 02:25:00,28.4,28.4,29.80,NNE,30,1.8,5.4,100,0.00,,---,0.00,VWS V14.01,2013-02-24 07:25:00,
2013-02-24 02:35:00,28.4,28.4,29.80,North,5,0.0,4.9,100,0.00,,---,0.00,VWS V14.01,2013-02-24 07:35:00,
2013-02-24 02:45:00,28.4,28.4,29.80,North,5,0.0,0.0,100,0.00,,---,0.00,VWS V14.01,2013-02-24 07:45:00,
2013-02-24 02:50:00,28.4,28.4,29.80,North,4,0.0,0.0,100,0.00,,---,0.00,VWS V14.01,2013-02-24 07:50:00,
2013-02-24 03:00:00,28.4,28.4,29.80,North,5,0.0,0.0,100,0.00,,---,0.00,VWS V14.01,2013-02-24 08:00:00,
2013-02-24 03:10:00,28.4,28.4,29.80,North,5,0.0,0.0,100,0.00,,---,0.00,VWS V14.01,2013-02-24 08:10:00,
2013-02-24 03:20:00,28.4,28.4,29.80,North,5,0.0,0.0,100,0.00,,---,0.00,VWS V14.01,2013-02-24 08:20:00,
2013-02-24 03:25:00,28.4,28.4,29.80,North,5,0.0,0.0,100,0.00,,---,0.00,VWS V14.01,2013-02-24 08:25:00,
2013-02-24 03:35:00,28.4,28.4,29.80,NNW,346,0.0,0.0,100,0.00,,---,0.00,VWS V14.01,2013-02-24 08:35:00,
2013-02-24 03:40:00,28.4,28.4,29.80,NNW,345,0.0,3.1,100,0.00,,---,0.00,VWS V14.01,2013-02-24 08:40:00,
2013-02-24 03:45:00,28.4,28.4,29.80,NW,322,4.0,4.9,100,0.00,,---,0.00,VWS V14.01,2013-02-24 08:45:00,
2013-02-24 03:50:00,28.4,28.4,29.80,NW,322,2.7,4.9,100,0.00,,---,0.00,VWS V14.01,2013-02-24 08:50:00,
2013-02-24 03:55:00,28.4,28.4,29.80,NW,325,2.2,5.8,100,0.00,,---,0.00,VWS V14.01,2013-02-24 08:55:00,
2013-02-24 04:05:00,28.4,28.4,29.80,NW,323,0.0,0.0,100,0.00,,---,0.00,VWS V14.01,2013-02-24 09:05:00,
2013-02-24 04:10:00,28.4,28.4,29.80,NW,323,0.0,0.0,100,0.00,,---,0.00,VWS V14.01,2013-02-24 09:10:00,
2013-02-24 04:20:00,28.4,28.4,29.80,NW,323,0.0,0.0,100,0.00,,---,0.00,VWS V14.01,2013-02-24 09:20:00,
2013-02-24 04:25:00,28.4,28.4,29.80,NW,323,0.0,0.0,100,0.00,,---,0.00,VWS V14.01,2013-02-24 09:25:00,
2013-02-24 04:35:00,28.4,28.4,29.80,NW,323,0.0,0.0,100,0.00,,---,0.00,VWS V14.01,2013-02-24 09:35:00,
2013-02-24 04:45:00,28.4,28.4,29.80,NW,323,0.0,0.0,100,0.00,,---,0.00,VWS V14.01,2013-02-24 09:45:00,
2013-02-24 04:50:00,28.4,28.4,29.80,NW,323,0.0,0.0,100,0.00,,---,0.00,VWS V14.01,2013-02-24 09:50:00,
2013-02-24 05:00:00,28.4,28.4,29.80,NW,323,0.0,0.0,100,0.00,,---,0.00,VWS V14.01,2013-02-24 10:00:00,
2013-02-24 05:10:00,28.4,28.4,29.80,NW,325,0.0,0.0,100,0.00,,---,0.00,VWS V14.01,2013-02-24 10:10:00,
2013-02-24 05:15:00,28.4,28.4,29.80,NW,323,0.0,0.0,100,0.00,,---,0.00,VWS V14.01,2013-02-24 10:15:00,
2013-02-24 05:20:00,28.4,28.4,29.80,NW,323,0.0,0.0,100,0.00,,---,0.00,VWS V14.01,2013-02-24 10:20:00,
2013-02-24 05:25:00,28.4,28.4,29.80,NW,323,0.0,0.0,100,0.00,,---,0.00,VWS V14.01,2013-02-24 10:25:00,
2013-02-24 05:35:00,28.4,28.4,29.80,NW,323,0.0,0.0,100,0.00,,---,0.00,VWS V14.01,2013-02-24 10:35:00,
2013-02-24 05:45:00,28.4,28.4,29.80,NW,323,0.0,0.0,100,0.00,,---,0.00,VWS V14.01,2013-02-24 10:45:00,
2013-02-24 05:55:00,28.4,28.4,29.80,NW,325,0.0,0.0,100,0.00,,---,0.00,VWS V14.01,2013-02-24 10:55:00,
2013-02-24 06:00:00,28.4,28.4,29.80,NW,323,0.0,0.0,100,0.00,,---,0.00,VWS V14.01,2013-02-24 11:00:00,
2013-02-24 06:10:00,28.4,28.4,29.80,NW,323,0.0,0.0,100,0.00,,---,0.00,VWS V14.01,2013-02-24 11:10:00,
2013-02-24 06:20:00,28.4,28.4,29.80,NW,323,0.0,0.0,100,0.00,,---,0.00,VWS V14.01,2013-02-24 11:20:00,
2013-02-24 06:25:00,28.4,28.4,29.80,NW,323,0.0,0.0,100,0.00,,---,0.00,VWS V14.01,2013-02-24 11:25:00,
2013-02-24 06:30:00,28.4,28.4,29.80,NW,323,0.0,0.0,100,0.00,,---,0.00,VWS V14.01,2013-02-24 11:30:00,
2013-02-24 06:35:00,28.4,28.4,29.80,NW,325,0.0,0.0,100,0.00,,---,0.00,VWS V14.01,2013-02-24 11:35:00,
2013-02-24 06:45:00,26.4,19.3,29.80,NW,323,0.0,0.0,74,0.00,,---,0.00,VWS V14.01,2013-02-24 11:45:00,
2013-02-24 06:50:00,26.4,19.3,29.80,NW,323,2.7,5.4,74,0.00,,---,0.00,VWS V14.01,2013-02-24 11:50:00,
2013-02-24 06:55:00,26.4,19.0,29.80,NW,319,4.9,5.4,73,0.00,,---,0.00,VWS V14.01,2013-02-24 11:55:00,
2013-02-24 07:00:00,26.6,19.1,29.80,NW,316,2.7,5.8,73,0.00,,---,0.00,VWS V14.01,2013-02-24 12:00:00,
2013-02-24 07:10:00,26.6,19.1,29.80,NW,315,1.8,3.6,73,0.00,,---,0.00,VWS V14.01,2013-02-24 12:10:00,
2013-02-24 07:20:00,26.4,19.0,29.80,NW,315,0.0,0.0,73,0.00,,---,0.00,VWS V14.01,2013-02-24 12:20:00,
2013-02-24 07:30:00,26.4,19.3,29.80,NW,315,0.0,2.7,74,0.00,,---,0.00,VWS V14.01,2013-02-24 12:30:00,
2013-02-24 07:40:00,26.6,19.4,29.80,NW,315,0.4,4.5,74,0.00,,---,0.00,VWS V14.01,2013-02-24 12:40:00,
2013-02-24 07:45:00,26.8,19.6,29.80,NW,315,3.1,4.9,74,0.00,,---,0.00,VWS V14.01,2013-02-24 12:45:00,
2013-02-24 07:55:00,26.8,19.3,29.80,NW,314,3.6,6.7,73,0.00,,---,0.00,VWS V14.01,2013-02-24 12:55:00,
2013-02-24 08:00:00,27.0,19.5,29.80,NW,314,1.8,4.0,73,0.00,,---,0.00,VWS V14.01,2013-02-24 13:00:00,
2013-02-24 08:10:00,27.0,19.5,29.80,NW,314,3.6,9.4,73,0.00,,---,0.00,VWS V14.01,2013-02-24 13:10:00,
2013-02-24 08:15:00,27.0,19.5,29.80,NW,319,8.1,8.5,73,0.00,,---,0.00,VWS V14.01,2013-02-24 13:15:00,
2013-02-24 08:20:00,26.8,19.3,29.80,North,353,3.6,10.3,73,0.00,,---,0.00,VWS V14.01,2013-02-24 13:20:00,
2013-02-24 08:25:00,26.8,19.3,29.80,WNW,294,9.8,12.1,73,0.00,,---,0.00,VWS V14.01,2013-02-24 13:25:00,
2013-02-24 08:30:00,26.8,19.3,29.80,NW,307,4.5,10.3,73,0.00,,---,0.00,VWS V14.01,2013-02-24 13:30:00,
2013-02-24 08:40:00,27.0,19.1,29.80,NW,304,3.6,8.5,72,0.00,,---,0.00,VWS V14.01,2013-02-24 13:40:00,
2013-02-24 08:45:00,27.0,19.1,29.80,NW,316,8.1,8.9,72,0.00,,---,0.00,VWS V14.01,2013-02-24 13:45:00,
2013-02-24 08:55:00,27.0,19.1,29.80,NNW,333,3.1,4.5,72,0.00,,---,0.00,VWS V14.01,2013-02-24 13:55:00,
2013-02-24 09:00:00,27.0,19.1,29.80,NW,315,4.9,7.6,72,0.00,,---,0.00,VWS V14.01,2013-02-24 14:00:00,
2013-02-24 09:05:00,27.0,19.1,29.80,NNW,340,8.1,8.1,72,0.00,,---,0.00,VWS V14.01,2013-02-24 14:05:00,
2013-02-24 09:15:00,27.0,19.1,29.80,NW,305,2.7,7.6,72,0.00,,---,0.00,VWS V14.01,2013-02-24 14:15:00,
2013-02-24 09:20:00,27.0,19.1,29.80,WNW,290,4.0,7.6,72,0.00,,---,0.00,VWS V14.01,2013-02-24 14:20:00,
2013-02-24 09:25:00,27.0,19.1,29.80,NW,311,5.4,9.4,72,0.00,,---,0.00,VWS V14.01,2013-02-24 14:25:00,
2013-02-24 09:30:00,26.8,19.0,29.80,West,281,8.1,10.3,72,0.00,,---,0.00,VWS V14.01,2013-02-24 14:30:00,
2013-02-24 09:40:00,26.1,18.9,29.80,NW,305,4.9,11.2,74,0.00,,---,0.00,VWS V14.01,2013-02-24 14:40:00,
2013-02-24 09:50:00,26.1,19.5,29.80,NW,315,5.4,7.6,76,0.00,,---,0.00,VWS V14.01,2013-02-24 14:50:00,
2013-02-24 10:00:00,25.7,19.5,29.80,WNW,300,5.4,7.2,77,0.00,,---,0.00,VWS V14.01,2013-02-24 15:00:00,
2013-02-24 10:05:00,26.1,20.5,29.80,NNW,347,4.9,8.1,79,0.00,,---,0.00,VWS V14.01,2013-02-24 15:05:00,
2013-02-24 10:15:00,26.1,20.1,29.83,NW,323,3.6,7.6,78,0.00,,---,0.00,VWS V14.01,2013-02-24 15:15:00,
2013-02-24 10:25:00,27.0,20.4,29.83,NW,304,1.8,6.3,76,0.00,,---,0.00,VWS V14.01,2013-02-24 15:25:00,
2013-02-24 10:30:00,27.0,20.4,29.83,NW,321,3.1,5.8,76,0.00,,---,0.00,VWS V14.01,2013-02-24 15:30:00,
2013-02-24 10:35:00,27.3,20.5,29.83,West,274,6.3,6.3,75,0.00,,---,0.00,VWS V14.01,2013-02-24 15:35:00,
2013-02-24 10:40:00,26.8,19.6,29.83,WSW,250,1.8,9.8,74,0.00,,---,0.00,VWS V14.01,2013-02-24 15:40:00,
2013-02-24 10:50:00,26.8,19.3,29.80,WNW,285,6.7,8.5,73,0.00,,---,0.00,VWS V14.01,2013-02-24 15:50:00,
2013-02-24 11:00:00,27.5,19.7,29.80,SSW,201,2.2,6.7,72,0.00,,---,0.00,VWS V14.01,2013-02-24 16:00:00,
2013-02-24 11:10:00,27.1,19.3,29.80,NW,312,3.1,10.3,72,0.00,,---,0.00,VWS V14.01,2013-02-24 16:10:00,
2013-02-24 11:15:00,27.0,19.1,29.83,West,270,6.3,12.5,72,0.00,,---,0.00,VWS V14.01,2013-02-24 16:15:00,
2013-02-24 11:25:00,27.3,19.5,29.83,NW,316,11.2,15.7,72,0.00,,---,0.00,VWS V14.01,2013-02-24 16:25:00,
2013-02-24 11:35:00,27.5,19.7,29.83,West,269,7.2,10.3,72,0.00,,---,0.00,VWS V14.01,2013-02-24 16:35:00,
2013-02-24 11:40:00,27.3,19.5,29.83,WSW,257,8.5,11.6,72,0.00,,---,0.00,VWS V14.01,2013-02-24 16:40:00,
2013-02-24 11:45:00,27.3,19.5,29.83,WNW,302,11.6,12.1,72,0.00,,---,0.00,VWS V14.01,2013-02-24 16:45:00,
2013-02-24 11:55:00,27.5,19.4,29.83,NNW,328,8.1,14.8,71,0.00,,---,0.00,VWS V14.01,2013-02-24 16:55:00,
2013-02-24 12:00:00,27.5,19.4,29.83,WNW,294,5.8,14.3,71,0.00,,---,0.00,VWS V14.01,2013-02-24 17:00:00,
2013-02-24 12:05:00,27.1,19.0,29.83,NW,309,7.6,12.1,71,0.00,,---,0.00,VWS V14.01,2013-02-24 17:05:00,
2013-02-24 12:10:00,27.1,19.3,29.83,West,263,7.6,13.4,72,0.00,,---,0.00,VWS V14.01,2013-02-24 17:10:00,
2013-02-24 12:20:00,27.5,19.4,29.83,West,270,4.9,9.4,71,0.00,,---,0.00,VWS V14.01,2013-02-24 17:20:00,
2013-02-24 12:25:00,27.5,19.4,29.83,West,278,11.6,13.9,71,0.00,,---,0.00,VWS V14.01,2013-02-24 17:25:00,
2013-02-24 12:30:00,27.5,19.4,29.83,WSW,249,6.3,13.4,71,0.00,,---,0.00,VWS V14.01,2013-02-24 17:30:00,
2013-02-24 12:35:00,27.5,19.4,29.83,WNW,288,7.2,11.6,71,0.00,,---,0.00,VWS V14.01,2013-02-24 17:35:00,
2013-02-24 12:45:00,27.7,19.5,29.80,West,281,10.7,13.9,71,0.00,,---,0.00,VWS V14.01,2013-02-24 17:45:00,
2013-02-24 12:50:00,27.7,19.5,29.80,NW,314,7.6,11.2,71,0.00,,---,0.00,VWS V14.01,2013-02-24 17:50:00,
2013-02-24 12:55:00,27.7,19.5,29.80,WNW,290,6.7,12.5,71,0.00,,---,0.00,VWS V14.01,2013-02-24 17:55:00,
2013-02-24 13:05:00,27.5,19.7,29.83,West,269,6.7,11.6,72,0.00,,---,0.00,VWS V14.01,2013-02-24 18:05:00,
2013-02-24 13:10:00,27.1,19.3,29.83,West,267,9.8,14.8,72,0.00,,---,0.00,VWS V14.01,2013-02-24 18:10:00,
2013-02-24 13:15:00,26.2,19.4,29.83,West,271,5.4,20.1,75,0.00,,---,0.00,VWS V14.01,2013-02-24 18:15:00,
2013-02-24 13:20:00,26.1,20.8,29.83,WNW,300,9.8,16.6,80,0.00,,---,0.00,VWS V14.01,2013-02-24 18:20:00,
2013-02-24 13:30:00,25.9,21.4,29.83,WNW,290,5.4,9.4,83,0.00,,---,0.00,VWS V14.01,2013-02-24 18:30:00,
2013-02-24 13:35:00,25.9,21.4,29.83,NW,315,1.8,7.6,83,0.00,,---,0.00,VWS V14.01,2013-02-24 18:35:00,
2013-02-24 13:40:00,25.9,21.4,29.83,WSW,254,3.1,5.4,83,0.00,,---,0.00,VWS V14.01,2013-02-24 18:40:00,
2013-02-24 13:45:00,25.9,21.1,29.83,NW,312,9.4,13.0,82,0.00,,---,0.00,VWS V14.01,2013-02-24 18:45:00,
2013-02-24 13:50:00,25.9,21.4,29.83,NW,305,4.9,10.7,83,0.00,,---,0.00,VWS V14.01,2013-02-24 18:50:00,
2013-02-24 13:55:00,26.1,21.6,29.83,NW,307,2.7,10.7,83,0.00,,---,0.00,VWS V14.01,2013-02-24 18:55:00,
2013-02-24 14:05:00,26.1,21.6,29.83,WSW,247,4.9,13.9,83,0.00,,---,0.00,VWS V14.01,2013-02-24 19:05:00,
2013-02-24 14:15:00,26.4,21.7,29.83,WNW,291,4.5,13.4,82,0.00,,---,0.00,VWS V14.01,2013-02-24 19:15:00,
2013-02-24 14:20:00,26.4,21.7,29.83,WNW,302,2.7,13.4,82,0.00,,---,0.00,VWS V14.01,2013-02-24 19:20:00,
2013-02-24 14:25:00,26.4,21.7,29.83,NW,311,7.6,13.4,82,0.00,,---,0.00,VWS V14.01,2013-02-24 19:25:00,
2013-02-24 14:30:00,26.4,22.0,29.83,WNW,298,0.0,10.3,83,0.00,,---,0.00,VWS V14.01,2013-02-24 19:30:00,
2013-02-24 14:40:00,26.4,21.7,29.83,WNW,285,7.2,10.7,82,0.00,,---,0.00,VWS V14.01,2013-02-24 19:40:00,
2013-02-24 14:50:00,25.7,20.4,29.83,West,271,19.2,19.2,80,0.00,,---,0.00,VWS V14.01,2013-02-24 19:50:00,
2013-02-24 15:00:00,26.2,20.9,29.83,WNW,288,6.7,12.1,80,0.00,,---,0.00,VWS V14.01,2013-02-24 20:00:00,
2013-02-24 15:05:00,26.4,21.1,29.83,NW,318,8.1,16.1,80,0.00,,---,0.00,VWS V14.01,2013-02-24 20:05:00,
2013-02-24 15:15:00,26.4,20.2,29.83,SW,226,4.5,11.6,77,0.00,,---,0.00,VWS V14.01,2013-02-24 20:15:00,
2013-02-24 15:25:00,26.6,20.1,29.83,WNW,284,10.7,16.6,76,0.00,,---,0.00,VWS V14.01,2013-02-24 20:25:00,
2013-02-24 15:35:00,26.6,19.8,29.83,NNW,340,4.0,13.0,75,0.00,,---,0.00,VWS V14.01,2013-02-24 20:35:00,
2013-02-24 15:40:00,26.8,20.2,29.83,WNW,301,11.2,12.1,76,0.00,,---,0.00,VWS V14.01,2013-02-24 20:40:00,
2013-02-24 15:50:00,26.6,20.4,29.85,West,270,5.4,10.7,77,0.00,,---,0.00,VWS V14.01,2013-02-24 20:50:00,
2013-02-24 16:00:00,26.1,20.5,29.85,WNW,290,13.4,18.8,79,0.00,,---,0.00,VWS V14.01,2013-02-24 21:00:00,
2013-02-24 16:10:00,25.9,20.3,29.85,NW,311,7.6,16.1,79,0.00,,---,0.00,VWS V14.01,2013-02-24 21:10:00,
2013-02-24 16:15:00,26.1,19.5,29.85,WNW,287,10.3,16.6,76,0.00,,---,0.00,VWS V14.01,2013-02-24 21:15:00,
2013-02-24 16:25:00,25.9,19.4,29.85,NW,308,15.2,15.2,76,0.00,,---,0.00,VWS V14.01,2013-02-24 21:25:00,
2013-02-24 16:35:00,25.9,20.0,29.83,NW,325,6.7,12.5,78,0.00,,---,0.00,VWS V14.01,2013-02-24 21:35:00,
2013-02-24 16:45:00,25.7,21.0,29.85,NNW,332,7.2,8.5,82,0.00,,---,0.00,VWS V14.01,2013-02-24 21:45:00,
2013-02-24 16:50:00,25.7,21.0,29.85,NW,305,6.7,12.1,82,0.00,,---,0.00,VWS V14.01,2013-02-24 21:50:00,
2013-02-24 17:00:00,25.3,20.9,29.85,NW,315,6.7,14.3,83,0.00,,---,0.00,VWS V14.01,2013-02-24 22:00:00,
2013-02-24 17:10:00,25.2,21.3,29.85,NW,322,10.7,11.2,85,0.00,,---,0.00,VWS V14.01,2013-02-24 22:10:00,
2013-02-24 17:15:00,25.2,21.3,29.88,WNW,298,4.5,12.5,85,0.00,,---,0.00,VWS V14.01,2013-02-24 22:15:00,
2013-02-24 17:20:00,25.2,21.0,29.88,NNW,330,9.4,15.2,84,0.00,,---,0.00,VWS V14.01,2013-02-24 22:20:00,
2013-02-24 17:25:00,25.2,21.0,29.88,NW,307,5.8,13.4,84,0.00,,---,0.00,VWS V14.01,2013-02-24 22:25:00,
2013-02-24 17:35:00,25.2,20.7,29.88,North,359,0.0,10.3,83,0.00,,---,0.00,VWS V14.01,2013-02-24 22:35:00,
2013-02-24 17:45:00,25.2,21.0,29.88,NW,314,3.1,9.4,84,0.00,,---,0.00,VWS V14.01,2013-02-24 22:45:00,
2013-02-24 17:55:00,25.0,20.8,29.88,WNW,297,9.8,9.8,84,0.00,,---,0.00,VWS V14.01,2013-02-24 22:55:00,
2013-02-24 18:05:00,25.0,20.6,29.88,NW,312,3.1,9.8,83,0.00,,---,0.00,VWS V14.01,2013-02-24 23:05:00,
2013-02-24 18:10:00,25.0,20.6,29.88,NW,305,4.0,13.0,83,0.00,,---,0.00,VWS V14.01,2013-02-24 23:10:00,
2013-02-24 18:20:00,24.8,20.4,29.91,WNW,288,4.0,11.6,83,0.00,,---,0.00,VWS V14.01,2013-02-24 23:20:00,
2013-02-24 18:30:00,24.8,20.4,29.91,WNW,295,5.4,12.5,83,0.00,,---,0.00,VWS V14.01,2013-02-24 23:30:00,
2013-02-24 18:40:00,24.6,20.2,29.91,WNW,290,4.0,11.6,83,0.00,,---,0.00,VWS V14.01,2013-02-24 23:40:00,
2013-02-24 18:45:00,24.8,20.4,29.91,NNW,329,3.1,7.2,83,0.00,,---,0.00,VWS V14.01,2013-02-24 23:45:00,
2013-02-24 18:50:00,24.6,20.2,29.91,NNW,332,1.8,7.6,83,0.00,,---,0.00,VWS V14.01,2013-02-24 23:50:00,
2013-02-24 18:55:00,24.6,20.2,29.91,NW,309,2.2,9.4,83,0.00,,---,0.00,VWS V14.01,2013-02-24 23:55:00,
2013-02-24 19:05:00,25.0,20.3,29.91,WSW,249,2.2,12.1,82,0.00,,---,0.00,VWS V14.01,2013-02-25 00:05:00,
2013-02-24 19:15:00,25.2,20.5,29.91,NW,304,11.6,11.6,82,0.00,,---,0.00,VWS V14.01,2013-02-25 00:15:00,
2013-02-24 19:20:00,25.2,20.5,29.91,WNW,302,4.0,11.6,82,0.00,,---,0.00,VWS V14.01,2013-02-25 00:20:00,
2013-02-24 19:25:00,25.2,20.5,29.91,WSW,257,4.0,8.5,82,0.00,,---,0.00,VWS V14.01,2013-02-25 00:25:00,
2013-02-24 19:30:00,25.3,20.6,29.91,NNW,336,2.7,8.9,82,0.00,,---,0.00,VWS V14.01,2013-02-25 00:30:00,
2013-02-24 19:40:00,25.3,20.6,29.91,WNW,290,7.6,9.8,82,0.00,,---,0.00,VWS V14.01,2013-02-25 00:40:00,
2013-02-24 19:50:00,25.2,20.5,29.94,WSW,245,5.8,14.3,82,0.00,,---,0.00,VWS V14.01,2013-02-25 00:50:00,
2013-02-24 20:00:00,25.2,20.5,29.94,WSW,257,6.7,7.2,82,0.00,,---,0.00,VWS V14.01,2013-02-25 01:00:00,
2013-02-24 20:05:00,25.3,20.6,29.94,WNW,283,2.7,14.3,82,0.00,,---,0.00,VWS V14.01,2013-02-25 01:05:00,
2013-02-24 20:15:00,25.3,20.6,29.94,NW,307,8.5,9.8,82,0.00,,---,0.00,VWS V14.01,2013-02-25 01:15:00,
2013-02-24 20:25:00,25.3,20.6,29.94,WNW,288,10.3,10.7,82,0.00,,---,0.00,VWS V14.01,2013-02-25 01:25:00,
2013-02-24 20:35:00,25.3,20.6,29.94,NW,314,4.0,10.3,82,0.00,,---,0.00,VWS V14.01,2013-02-25 01:35:00,
2013-02-24 20:40:00,25.3,20.6,29.94,NNW,329,9.8,10.3,82,0.00,,---,0.00,VWS V14.01,2013-02-25 01:40:00,
2013-02-24 20:45:00,25.3,20.6,29.94,WNW,291,6.7,14.3,82,0.00,,---,0.00,VWS V14.01,2013-02-25 01:45:00,
2013-02-24 20:50:00,25.3,20.6,29.94,WNW,283,6.7,10.3,82,0.00,,---,0.00,VWS V14.01,2013-02-25 01:50:00,
2013-02-24 21:00:00,25.3,20.6,29.94,WNW,300,10.7,13.9,82,0.00,,---,0.00,VWS V14.01,2013-02-25 02:00:00,
2013-02-24 21:10:00,25.3,20.6,29.94,NW,307,0.0,8.9,82,0.00,,---,0.00,VWS V14.01,2013-02-25 02:10:00,
2013-02-24 21:15:00,25.3,20.6,29.94,West,259,4.0,9.4,82,0.00,,---,0.00,VWS V14.01,2013-02-25 02:15:00,
2013-02-24 21:20:00,25.3,20.6,29.94,West,270,5.8,8.5,82,0.00,,---,0.00,VWS V14.01,2013-02-25 02:20:00,
2013-02-24 21:25:00,25.3,20.6,29.94,WNW,300,8.9,12.5,82,0.00,,---,0.00,VWS V14.01,2013-02-25 02:25:00,
2013-02-24 21:35:00,25.3,21.2,29.94,NW,312,3.6,8.9,84,0.00,,---,0.00,VWS V14.01,2013-02-25 02:35:00,
2013-02-24 21:45:00,25.3,21.2,29.94,NW,321,8.1,11.2,84,0.00,,---,0.00,VWS V14.01,2013-02-25 02:45:00,
2013-02-24 21:55:00,25.3,21.2,29.94,NW,318,1.3,9.4,84,0.00,,---,0.00,VWS V14.01,2013-02-25 02:55:00,
2013-02-24 22:00:00,25.3,21.2,29.97,West,266,5.8,5.8,84,0.00,,---,0.00,VWS V14.01,2013-02-25 03:00:00,
2013-02-24 22:05:00,25.3,21.2,29.97,NNW,333,1.8,6.7,84,0.00,,---,0.00,VWS V14.01,2013-02-25 03:05:00,
2013-02-24 22:10:00,25.3,21.2,29.97,WNW,297,0.0,4.9,84,0.00,,---,0.00,VWS V14.01,2013-02-25 03:10:00,
2013-02-24 22:20:00,25.3,21.5,29.94,NW,319,0.0,4.9,85,0.00,,---,0.00,VWS V14.01,2013-02-25 03:20:00,
2013-02-24 22:30:00,25.3,21.5,29.94,WNW,297,4.5,6.3,85,0.00,,---,0.00,VWS V14.01,2013-02-25 03:30:00,
2013-02-24 22:40:00,25.5,21.6,29.94,WNW,283,5.4,12.1,85,0.00,,---,0.00,VWS V14.01,2013-02-25 03:40:00,
2013-02-24 22:45:00,25.5,21.6,29.94,WSW,242,5.4,10.7,85,0.00,,---,0.00,VWS V14.01,2013-02-25 03:45:00,
2013-02-24 22:50:00,25.5,21.6,29.94,WSW,254,3.6,8.5,85,0.00,,---,0.00,VWS V14.01,2013-02-25 03:50:00,
2013-02-24 22:55:00,25.5,21.6,29.94,West,280,6.7,14.3,85,0.00,,---,0.00,VWS V14.01,2013-02-25 03:55:00,
2013-02-24 23:05:00,25.7,21.8,29.94,SW,236,4.9,9.4,85,0.00,,---,0.00,VWS V14.01,2013-02-25 04:05:00,
2013-02-24 23:15:00,25.7,21.8,29.94,West,278,4.0,9.8,85,0.00,,---,0.00,VWS V14.01,2013-02-25 04:15:00,
2013-02-24 23:20:00,25.7,22.1,29.94,NW,315,7.6,8.5,86,0.00,,---,0.00,VWS V14.01,2013-02-25 04:20:00,
2013-02-24 23:25:00,25.7,22.1,29.94,WSW,246,5.8,8.5,86,0.00,,---,0.00,VWS V14.01,2013-02-25 04:25:00,
2013-02-24 23:30:00,25.7,22.1,29.97,WNW,284,5.8,8.5,86,0.00,,---,0.00,VWS V14.01,2013-02-25 04:30:00,
2013-02-24 23:40:00,25.7,22.1,29.97,WNW,292,8.1,12.5,86,0.00,,---,0.00,VWS V14.01,2013-02-25 04:40:00,
2013-02-24 23:50:00,25.7,22.1,29.97,NW,319,7.2,9.8,86,0.00,,---,0.00,VWS V14.01,2013-02-25 04:50:00,